Disclaimer

Please do not use the information listed here in-flight or in-navigation, as they are not provided to us by the airports but are provided by volunteers, so they might be outdated.

Search


Regions


Airport information page

Radio informations:
MANZANILLO APP/T - 118.7 MHz

Airport informations:
Latitude: 19° 08' 41.20" N
Longitude: 104° 33' 31.07" W
Elevation: 30 feet - 9 meters
Operating hours: Remarks
Operating agency: Civil government, landing fees and diplomatic clearance may be required
Timezone: UTC-6(-5DT) - First Sunday in April to the last Saturday in October
Fuel: Jet A, without icing inhibitor.

100/130 octane gasoline, leaded, MIL-L-5572F (GREEN)

80/87 octane gasoline, leaded, MIL-L-5572F (RED)

Runway information:
10/28 - 7218 x 148 feet< - >2200 x 45 meters

Recent METARs:
MMZO 191540Z 360065KT 12SM SKC 25/20 A2998
MMZO 191540Z 360065KT 12SM SKC 25/20 A2998
MMZO 191640Z 30005KT 12SM SKC 26/20 A2998

Airport on the map: